sensor_id;sensor_type;location;lat;lon;timestamp;pressure;altitude;pressure_sealevel;temperature;humidity
56330;BME280;42236;48.058;10.632;2024-03-07T00:02:06;95038.88;;;2.60;100.00
56330;BME280;42236;48.058;10.632;2024-03-07T00:04:52;95036.47;;;2.58;100.00
56330;BME280;42236;48.058;10.632;2024-03-07T00:07:38;95037.78;;;2.61;100.00
56330;BME280;42236;48.058;10.632;2024-03-07T00:10:24;95040.72;;;2.64;100.00
56330;BME280;42236;48.058;10.632;2024-03-07T00:13:10;95035.97;;;2.56;100.00
56330;BME280;42236;48.058;10.632;2024-03-07T00:15:56;95040.53;;;2.50;100.00
56330;BME280;42236;48.058;10.632;2024-03-07T00:18:41;95043.16;;;2.55;100.00
56330;BME280;42236;48.058;10.632;2024-03-07T00:21:27;95037.78;;;2.61;100.00
56330;BME280;42236;48.058;10.632;2024-03-07T00:24:13;95036.75;;;2.62;100.00
56330;BME280;42236;48.058;10.632;2024-03-07T00:26:59;95042.28;;;2.65;100.00
56330;BME280;42236;48.058;10.632;2024-03-07T00:29:45;95040.41;;;2.66;100.00
56330;BME280;42236;48.058;10.632;2024-03-07T00:32:38;95043.31;;;2.69;100.00
56330;BME280;42236;48.058;10.632;2024-03-07T00:35:24;95042.22;;;2.70;100.00
56330;BME280;42236;48.058;10.632;2024-03-07T00:38:10;95044.13;;;2.70;100.00
56330;BME280;42236;48.058;10.632;2024-03-07T00:40:56;95041.41;;;2.75;100.00
56330;BME280;42236;48.058;10.632;2024-03-07T00:43:41;95039.25;;;2.77;100.00
56330;BME280;42236;48.058;10.632;2024-03-07T00:46:30;95036.31;;;2.78;100.00
56330;BME280;42236;48.058;10.632;2024-03-07T00:49:16;95037.09;;;2.79;100.00
56330;BME280;42236;48.058;10.632;2024-03-07T00:52:02;95044.81;;;2.81;100.00
56330;BME280;42236;48.058;10.632;2024-03-07T00:54:47;95037.09;;;2.79;100.00
56330;BME280;42236;48.058;10.632;2024-03-07T00:57:33;95035.53;;;2.78;100.00
56330;BME280;42236;48.058;10.632;2024-03-07T01:00:20;95029.13;;;2.79;100.00
56330;BME280;42236;48.058;10.632;2024-03-07T01:03:06;95031.78;;;2.79;100.00
56330;BME280;42236;48.058;10.632;2024-03-07T01:05:52;95030.69;;;2.80;100.00
56330;BME280;42236;48.058;10.632;2024-03-07T01:08:38;95028.59;;;2.77;100.00
56330;BME280;42236;48.058;10.632;2024-03-07T01:11:24;95028.84;;;2.81;100.00
56330;BME280;42236;48.058;10.632;2024-03-07T01:14:10;95025.34;;;2.85;100.00
56330;BME280;42236;48.058;10.632;2024-03-07T01:16:56;95026.91;;;2.86;100.00
56330;BME280;42236;48.058;10.632;2024-03-07T01:19:42;95016.25;;;2.86;100.00
56330;BME280;42236;48.058;10.632;2024-03-07T01:22:28;95010.47;;;2.79;100.00
56330;BME280;42236;48.058;10.632;2024-03-07T01:25:13;95013.75;;;2.71;100.00
56330;BME280;42236;48.058;10.632;2024-03-07T01:28:00;95010.56;;;2.69;100.00
56330;BME280;42236;48.058;10.632;2024-03-07T01:30:45;95016.69;;;2.69;100.00
56330;BME280;42236;48.058;10.632;2024-03-07T01:33:31;95003.63;;;2.68;100.00
56330;BME280;42236;48.058;10.632;2024-03-07T01:36:18;95000.69;;;2.69;100.00
56330;BME280;42236;48.058;10.632;2024-03-07T01:39:04;95000.47;;;2.66;100.00
56330;BME280;42236;48.058;10.632;2024-03-07T01:41:50;95004.53;;;2.58;100.00
56330;BME280;42236;48.058;10.632;2024-03-07T01:44:36;94993.88;;;2.58;100.00
56330;BME280;42236;48.058;10.632;2024-03-07T01:47:22;95005.34;;;2.59;100.00
56330;BME280;42236;48.058;10.632;2024-03-07T01:50:08;94995.13;;;2.66;100.00
56330;BME280;42236;48.058;10.632;2024-03-07T01:52:54;94990.56;;;2.71;100.00
56330;BME280;42236;48.058;10.632;2024-03-07T01:55:41;94987.38;;;2.69;100.00
56330;BME280;42236;48.058;10.632;2024-03-07T01:58:29;94986.34;;;2.65;100.00
56330;BME280;42236;48.058;10.632;2024-03-07T02:01:15;94992.81;;;2.59;100.00
56330;BME280;42236;48.058;10.632;2024-03-07T02:04:01;94981.91;;;2.55;100.00
56330;BME280;42236;48.058;10.632;2024-03-07T02:06:46;94978.25;;;2.51;100.00
56330;BME280;42236;48.058;10.632;2024-03-07T02:09:32;94975.91;;;2.45;100.00
56330;BME280;42236;48.058;10.632;2024-03-07T02:12:18;94968.75;;;2.40;100.00
56330;BME280;42236;48.058;10.632;2024-03-07T02:15:04;94972.25;;;2.35;100.00
56330;BME280;42236;48.058;10.632;2024-03-07T02:17:49;94968.28;;;2.33;100.00
56330;BME280;42236;48.058;10.632;2024-03-07T02:20:35;94961.41;;;2.27;100.00
56330;BME280;42236;48.058;10.632;2024-03-07T02:23:21;94959.03;;;2.25;100.00
56330;BME280;42236;48.058;10.632;2024-03-07T02:26:06;94954.50;;;2.26;100.00
56330;BME280;42236;48.058;10.632;2024-03-07T02:28:54;94960.41;;;2.23;100.00
56330;BME280;42236;48.058;10.632;2024-03-07T02:31:39;94953.47;;;2.22;100.00
56330;BME280;42236;48.058;10.632;2024-03-07T02:34:27;94953.50;;;2.17;100.00
56330;BME280;42236;48.058;10.632;2024-03-07T02:37:12;94953.00;;;2.14;100.00
56330;BME280;42236;48.058;10.632;2024-03-07T02:39:59;94954.06;;;2.13;100.00
56330;BME280;42236;48.058;10.632;2024-03-07T02:42:44;94942.91;;;2.11;100.00
56330;BME280;42236;48.058;10.632;2024-03-07T02:45:30;94949.81;;;2.12;100.00
56330;BME280;42236;48.058;10.632;2024-03-07T02:48:16;94954.59;;;2.16;100.00
56330;BME280;42236;48.058;10.632;2024-03-07T02:51:03;94944.75;;;2.16;100.00
56330;BME280;42236;48.058;10.632;2024-03-07T02:53:51;94947.66;;;2.14;100.00
56330;BME280;42236;48.058;10.632;2024-03-07T02:56:36;94940.19;;;2.17;100.00
56330;BME280;42236;48.058;10.632;2024-03-07T02:59:22;94940.50;;;2.15;100.00
56330;BME280;42236;48.058;10.632;2024-03-07T03:02:08;94934.88;;;2.17;100.00
56330;BME280;42236;48.058;10.632;2024-03-07T03:04:54;94934.31;;;2.20;100.00
56330;BME280;42236;48.058;10.632;2024-03-07T03:07:40;94929.28;;;2.18;100.00
56330;BME280;42236;48.058;10.632;2024-03-07T03:10:26;94935.91;;;2.21;100.00
56330;BME280;42236;48.058;10.632;2024-03-07T03:13:14;94932.41;;;2.25;100.00
56330;BME280;42236;48.058;10.632;2024-03-07T03:16:01;94924.69;;;2.24;100.00
56330;BME280;42236;48.058;10.632;2024-03-07T03:18:50;94932.13;;;2.27;100.00
56330;BME280;42236;48.058;10.632;2024-03-07T03:21:36;94928.91;;;2.30;100.00
56330;BME280;42236;48.058;10.632;2024-03-07T03:24:22;94930.53;;;2.26;100.00
56330;BME280;42236;48.058;10.632;2024-03-07T03:27:07;94934.56;;;2.23;100.00
56330;BME280;42236;48.058;10.632;2024-03-07T03:29:53;94935.59;;;2.27;100.00
56330;BME280;42236;48.058;10.632;2024-03-07T03:32:40;94941.16;;;2.31;100.00
56330;BME280;42236;48.058;10.632;2024-03-07T03:35:25;94930.50;;;2.31;100.00
56330;BME280;42236;48.058;10.632;2024-03-07T03:38:11;94934.47;;;2.33;100.00
56330;BME280;42236;48.058;10.632;2024-03-07T03:40:57;94937.88;;;2.39;100.00
56330;BME280;42236;48.058;10.632;2024-03-07T03:43:43;94928.97;;;2.49;100.00
56330;BME280;42236;48.058;10.632;2024-03-07T03:46:28;94919.31;;;2.58;100.00
56330;BME280;42236;48.058;10.632;2024-03-07T03:49:14;94921.63;;;2.65;100.00
56330;BME280;42236;48.058;10.632;2024-03-07T03:52:00;94917.34;;;2.69;100.00
56330;BME280;42236;48.058;10.632;2024-03-07T03:54:45;94917.28;;;2.74;100.00
56330;BME280;42236;48.058;10.632;2024-03-07T03:57:32;94920.16;;;2.77;100.00
56330;BME280;42236;48.058;10.632;2024-03-07T04:00:18;94913.47;;;2.80;100.00
56330;BME280;42236;48.058;10.632;2024-03-07T04:03:04;94910.25;;;2.83;100.00
56330;BME280;42236;48.058;10.632;2024-03-07T04:05:50;94910.78;;;2.85;100.00
56330;BME280;42236;48.058;10.632;2024-03-07T04:08:35;94905.13;;;2.87;100.00
56330;BME280;42236;48.058;10.632;2024-03-07T04:11:22;94908.31;;;2.89;100.00
56330;BME280;42236;48.058;10.632;2024-03-07T04:14:08;94907.75;;;2.92;100.00
56330;BME280;42236;48.058;10.632;2024-03-07T04:16:53;94910.41;;;2.92;100.00
56330;BME280;42236;48.058;10.632;2024-03-07T04:19:42;94909.63;;;2.91;100.00
56330;BME280;42236;48.058;10.632;2024-03-07T04:22:28;94906.44;;;2.89;100.00
56330;BME280;42236;48.058;10.632;2024-03-07T04:25:13;94912.06;;;2.88;100.00
56330;BME280;42236;48.058;10.632;2024-03-07T04:28:00;94919.75;;;2.89;100.00
56330;BME280;42236;48.058;10.632;2024-03-07T04:30:45;94916.81;;;2.91;100.00
56330;BME280;42236;48.058;10.632;2024-03-07T04:33:31;94912.00;;;2.93;100.00
56330;BME280;42236;48.058;10.632;2024-03-07T04:36:17;94913.81;;;2.97;100.00
56330;BME280;42236;48.058;10.632;2024-03-07T04:39:02;94904.72;;;2.98;100.00
56330;BME280;42236;48.058;10.632;2024-03-07T04:41:53;94910.56;;;3.01;100.00
56330;BME280;42236;48.058;10.632;2024-03-07T04:44:39;94910.31;;;3.02;100.00
56330;BME280;42236;48.058;10.632;2024-03-07T04:47:25;94911.59;;;3.05;100.00
56330;BME280;42236;48.058;10.632;2024-03-07T04:50:11;94913.19;;;3.06;100.00
56330;BME280;42236;48.058;10.632;2024-03-07T04:52:57;94912.09;;;3.07;100.00
56330;BME280;42236;48.058;10.632;2024-03-07T04:55:43;94910.25;;;3.07;100.00
56330;BME280;42236;48.058;10.632;2024-03-07T04:58:29;94908.88;;;3.10;100.00
56330;BME280;42236;48.058;10.632;2024-03-07T05:01:14;94912.03;;;3.12;100.00
56330;BME280;42236;48.058;10.632;2024-03-07T05:04:00;94908.81;;;3.15;100.00
56330;BME280;42236;48.058;10.632;2024-03-07T05:06:46;94904.53;;;3.14;100.00
56330;BME280;42236;48.058;10.632;2024-03-07T05:09:34;94906.72;;;3.12;100.00
56330;BME280;42236;48.058;10.632;2024-03-07T05:12:20;94911.22;;;3.11;100.00
56330;BME280;42236;48.058;10.632;2024-03-07T05:15:06;94909.88;;;3.14;100.00
56330;BME280;42236;48.058;10.632;2024-03-07T05:17:55;94909.88;;;3.14;100.00
56330;BME280;42236;48.058;10.632;2024-03-07T05:20:41;94900.03;;;3.14;100.00
56330;BME280;42236;48.058;10.632;2024-03-07T05:23:27;94909.88;;;3.14;100.00
56330;BME280;42236;48.058;10.632;2024-03-07T05:26:13;94916.78;;;3.15;100.00
56330;BME280;42236;48.058;10.632;2024-03-07T05:29:03;94907.72;;;3.16;100.00
56330;BME280;42236;48.058;10.632;2024-03-07T05:31:53;94905.03;;;3.16;100.00
56330;BME280;42236;48.058;10.632;2024-03-07T05:34:39;94912.53;;;3.14;100.00
56330;BME280;42236;48.058;10.632;2024-03-07T05:37:26;94918.38;;;3.16;100.00
56330;BME280;42236;48.058;10.632;2024-03-07T05:40:12;94918.88;;;3.18;100.00
56330;BME280;42236;48.058;10.632;2024-03-07T05:42:58;94909.59;;;3.15;100.00
56330;BME280;42236;48.058;10.632;2024-03-07T05:45:45;94916.22;;;3.18;100.00
56330;BME280;42236;48.058;10.632;2024-03-07T05:48:30;94911.41;;;3.20;100.00
56330;BME280;42236;48.058;10.632;2024-03-07T05:51:17;94917.25;;;3.22;100.00
56330;BME280;42236;48.058;10.632;2024-03-07T05:54:03;94907.38;;;3.23;100.00
56330;BME280;42236;48.058;10.632;2024-03-07T05:56:52;94905.22;;;3.25;100.00
56330;BME280;42236;48.058;10.632;2024-03-07T05:59:37;94904.63;;;3.28;100.00
56330;BME280;42236;48.058;10.632;2024-03-07T06:02:24;94904.34;;;3.29;100.00
56330;BME280;42236;48.058;10.632;2024-03-07T06:05:09;94903.25;;;3.30;100.00
56330;BME280;42236;48.058;10.632;2024-03-07T06:08:00;94911.75;;;3.32;100.00
56330;BME280;42236;48.058;10.632;2024-03-07T06:10:47;94904.88;;;3.31;100.00
56330;BME280;42236;48.058;10.632;2024-03-07T06:13:33;94909.69;;;3.29;100.00
56330;BME280;42236;48.058;10.632;2024-03-07T06:16:18;94908.59;;;3.30;100.00
56330;BME280;42236;48.058;10.632;2024-03-07T06:19:06;94904.56;;;3.33;100.00
56330;BME280;42236;48.058;10.632;2024-03-07T06:21:52;94905.84;;;3.35;100.00
56330;BME280;42236;48.058;10.632;2024-03-07T06:24:39;94892.25;;;3.37;100.00
56330;BME280;42236;48.058;10.632;2024-03-07T06:27:25;94902.84;;;3.42;100.00
56330;BME280;42236;48.058;10.632;2024-03-07T06:30:22;94902.75;;;3.47;100.00
56330;BME280;42236;48.058;10.632;2024-03-07T06:33:09;94896.06;;;3.50;100.00
56330;BME280;42236;48.058;10.632;2024-03-07T06:35:55;94904.56;;;3.52;100.00
56330;BME280;42236;48.058;10.632;2024-03-07T06:38:41;94901.38;;;3.50;100.00
56330;BME280;42236;48.058;10.632;2024-03-07T06:41:27;94902.63;;;3.38;100.00
56330;BME280;42236;48.058;10.632;2024-03-07T06:44:12;94899.56;;;3.26;100.00
56330;BME280;42236;48.058;10.632;2024-03-07T06:46:58;94904.53;;;3.14;100.00
56330;BME280;42236;48.058;10.632;2024-03-07T06:49:44;94905.97;;;3.06;100.00
56330;BME280;42236;48.058;10.632;2024-03-07T06:52:30;94900.44;;;3.03;100.00
56330;BME280;42236;48.058;10.632;2024-03-07T06:55:16;94898.75;;;3.07;100.00
56330;BME280;42236;48.058;10.632;2024-03-07T06:58:02;94910.06;;;2.98;100.00
56330;BME280;42236;48.058;10.632;2024-03-07T07:00:51;94904.22;;;2.96;100.00
56330;BME280;42236;48.058;10.632;2024-03-07T07:03:39;94908.19;;;2.99;100.00
56330;BME280;42236;48.058;10.632;2024-03-07T07:06:24;94900.44;;;3.03;100.00
56330;BME280;42236;48.058;10.632;2024-03-07T07:09:11;94906.31;;;2.99;100.00
56330;BME280;42236;48.058;10.632;2024-03-07T07:11:57;94908.97;;;2.99;100.00
56330;BME280;42236;48.058;10.632;2024-03-07T07:14:42;94902.31;;;3.02;100.00
56330;BME280;42236;48.058;10.632;2024-03-07T07:17:28;94903.09;;;3.03;100.00
56330;BME280;42236;48.058;10.632;2024-03-07T07:20:17;94907.34;;;3.04;100.00
56330;BME280;42236;48.058;10.632;2024-03-07T07:23:03;94900.72;;;3.01;100.00
56330;BME280;42236;48.058;10.632;2024-03-07T07:25:49;94904.22;;;2.96;100.00
56330;BME280;42236;48.058;10.632;2024-03-07T07:28:34;94908.66;;;2.82;100.00
56330;BME280;42236;48.058;10.632;2024-03-07T07:31:21;94905.47;;;2.80;100.00
56330;BME280;42236;48.058;10.632;2024-03-07T07:34:07;94901.63;;;2.67;100.00
56330;BME280;42236;48.058;10.632;2024-03-07T07:36:53;94903.28;;;2.63;100.00
56330;BME280;42236;48.058;10.632;2024-03-07T07:39:38;94909.47;;;2.59;100.00
56330;BME280;42236;48.058;10.632;2024-03-07T07:42:24;94900.97;;;2.56;100.00
56330;BME280;42236;48.058;10.632;2024-03-07T07:45:10;94905.19;;;2.58;100.00
56330;BME280;42236;48.058;10.632;2024-03-07T07:47:56;94899.03;;;2.62;100.00
56330;BME280;42236;48.058;10.632;2024-03-07T07:50:42;94900.16;;;2.56;100.00
56330;BME280;42236;48.058;10.632;2024-03-07T07:53:27;94899.34;;;2.55;100.00
56330;BME280;42236;48.058;10.632;2024-03-07T07:56:13;94909.00;;;2.51;100.00
56330;BME280;42236;48.058;10.632;2024-03-07T07:58:59;94910.13;;;2.45;100.00
56330;BME280;42236;48.058;10.632;2024-03-07T08:01:44;94909.56;;;2.48;100.00
56330;BME280;42236;48.058;10.632;2024-03-07T08:04:30;94901.47;;;2.34;100.00
56330;BME280;42236;48.058;10.632;2024-03-07T08:07:16;94905.44;;;2.32;100.00
56330;BME280;42236;48.058;10.632;2024-03-07T08:10:01;94907.56;;;2.35;100.00
56330;BME280;42236;48.058;10.632;2024-03-07T08:12:47;94908.34;;;2.35;100.00
56330;BME280;42236;48.058;10.632;2024-03-07T08:15:33;94907.56;;;2.35;100.00
56330;BME280;42236;48.058;10.632;2024-03-07T08:18:20;94899.28;;;2.37;100.00
56330;BME280;42236;48.058;10.632;2024-03-07T08:21:05;94902.97;;;2.41;100.00
56330;BME280;42236;48.058;10.632;2024-03-07T08:23:51;94905.00;;;2.49;100.00
56330;BME280;42236;48.058;10.632;2024-03-07T08:26:37;94894.34;;;2.54;100.00
56330;BME280;42236;48.058;10.632;2024-03-07T08:29:23;94889.84;;;2.49;100.00
56330;BME280;42236;48.058;10.632;2024-03-07T08:32:09;94902.09;;;2.50;100.00
56330;BME280;42236;48.058;10.632;2024-03-07T08:34:55;94905.84;;;2.49;100.00
56330;BME280;42236;48.058;10.632;2024-03-07T08:37:45;94887.72;;;2.51;100.00
56330;BME280;42236;48.058;10.632;2024-03-07T08:40:31;94890.81;;;2.59;100.00
56330;BME280;42236;48.058;10.632;2024-03-07T08:43:17;94882.53;;;2.60;100.00
56330;BME280;42236;48.058;10.632;2024-03-07T08:46:03;94885.72;;;2.62;100.00
56330;BME280;42236;48.058;10.632;2024-03-07T08:48:49;94883.38;;;2.55;100.00
56330;BME280;42236;48.058;10.632;2024-03-07T08:51:34;94879.09;;;2.60;100.00
56330;BME280;42236;48.058;10.632;2024-03-07T08:54:20;94883.06;;;2.62;100.00
56330;BME280;42236;48.058;10.632;2024-03-07T08:57:06;94875.78;;;2.68;100.00
56330;BME280;42236;48.058;10.632;2024-03-07T08:59:53;94875.50;;;2.69;100.00
56330;BME280;42236;48.058;10.632;2024-03-07T09:02:38;94877.00;;;2.81;100.00
56330;BME280;42236;48.058;10.632;2024-03-07T09:05:24;94879.41;;;2.77;100.00
56330;BME280;42236;48.058;10.632;2024-03-07T09:08:10;94876.34;;;2.89;100.00
56330;BME280;42236;48.058;10.632;2024-03-07T09:10:57;94873.84;;;2.97;100.00
56330;BME280;42236;48.058;10.632;2024-03-07T09:13:43;94873.19;;;3.06;100.00
56330;BME280;42236;48.058;10.632;2024-03-07T09:16:28;94873.13;;;3.11;100.00
56330;BME280;42236;48.058;10.632;2024-03-07T09:19:14;94867.22;;;3.14;100.00
56330;BME280;42236;48.058;10.632;2024-03-07T09:22:05;94867.44;;;3.17;100.00
56330;BME280;42236;48.058;10.632;2024-03-07T09:24:53;94870.63;;;3.19;100.00
56330;BME280;42236;48.058;10.632;2024-03-07T09:27:39;94869.84;;;3.19;100.00
56330;BME280;42236;48.058;10.632;2024-03-07T09:30:26;94865.78;;;3.03;100.00
56330;BME280;42236;48.058;10.632;2024-03-07T09:33:13;94872.69;;;3.04;100.00
56330;BME280;42236;48.058;10.632;2024-03-07T09:36:02;94868.81;;;3.15;100.00
56330;BME280;42236;48.058;10.632;2024-03-07T09:38:47;94870.41;;;3.16;100.00
56330;BME280;42236;48.058;10.632;2024-03-07T09:41:33;94860.59;;;3.30;100.00
56330;BME280;42236;48.058;10.632;2024-03-07T09:44:20;94860.44;;;3.40;100.00
56330;BME280;42236;48.058;10.632;2024-03-07T09:47:12;94871.09;;;3.40;100.00
56330;BME280;42236;48.058;10.632;2024-03-07T09:49:58;94868.41;;;3.46;100.00
56330;BME280;42236;48.058;10.632;2024-03-07T09:52:46;94865.66;;;3.51;100.00
56330;BME280;42236;48.058;10.632;2024-03-07T09:55:34;94857.94;;;3.30;100.00
56330;BME280;42236;48.058;10.632;2024-03-07T09:58:20;94866.44;;;3.32;100.00
56330;BME280;42236;48.058;10.632;2024-03-07T10:01:07;94868.16;;;3.42;100.00
56330;BME280;42236;48.058;10.632;2024-03-07T10:03:58;94860.75;;;3.58;100.00
56330;BME280;42236;48.058;10.632;2024-03-07T10:06:48;94858.34;;;3.75;100.00
56330;BME280;42236;48.058;10.632;2024-03-07T10:09:36;94859.72;;;3.87;100.00
56330;BME280;42236;48.058;10.632;2024-03-07T10:12:23;94853.75;;;3.95;100.00
56330;BME280;42236;48.058;10.632;2024-03-07T10:15:10;94859.59;;;3.97;100.00
56330;BME280;42236;48.058;10.632;2024-03-07T10:17:59;94852.00;;;4.04;100.00
56330;BME280;42236;48.058;10.632;2024-03-07T10:20:45;94852.56;;;4.01;100.00
56330;BME280;42236;48.058;10.632;2024-03-07T10:23:31;94859.00;;;4.00;100.00
56330;BME280;42236;48.058;10.632;2024-03-07T10:26:20;94854.16;;;4.02;100.00
56330;BME280;42236;48.058;10.632;2024-03-07T10:29:07;94858.72;;;4.15;100.00
56330;BME280;42236;48.058;10.632;2024-03-07T10:31:55;94849.03;;;4.19;100.00
56330;BME280;42236;48.058;10.632;2024-03-07T10:34:41;94844.72;;;4.23;100.00
56330;BME280;42236;48.058;10.632;2024-03-07T10:37:34;94846.69;;;4.32;100.00
56330;BME280;42236;48.058;10.632;2024-03-07T10:40:21;94848.16;;;4.24;100.00
56330;BME280;42236;48.058;10.632;2024-03-07T10:43:09;94845.22;;;4.25;100.00
56330;BME280;42236;48.058;10.632;2024-03-07T10:45:56;94846.09;;;4.35;100.00
56330;BME280;42236;48.058;10.632;2024-03-07T10:48:45;94845.41;;;4.43;100.00
56330;BME280;42236;48.058;10.632;2024-03-07T10:51:40;94849.34;;;4.32;100.00
56330;BME280;42236;48.058;10.632;2024-03-07T10:54:39;94845.31;;;4.34;100.00
56330;BME280;42236;48.058;10.632;2024-03-07T10:57:41;94846.38;;;4.19;100.00
56330;BME280;42236;48.058;10.632;2024-03-07T11:00:30;94840.34;;;4.14;100.00
56330;BME280;42236;48.058;10.632;2024-03-07T11:03:21;94841.13;;;4.14;100.00
56330;BME280;42236;48.058;10.632;2024-03-07T11:06:07;94833.88;;;4.01;100.00
56330;BME280;42236;48.058;10.632;2024-03-07T11:08:57;94841.31;;;4.18;100.00
56330;BME280;42236;48.058;10.632;2024-03-07T11:11:43;94839.19;;;4.34;100.00
56330;BME280;42236;48.058;10.632;2024-03-07T11:14:30;94835.72;;;4.33;100.00
56330;BME280;42236;48.058;10.632;2024-03-07T11:17:18;94835.91;;;4.23;100.00
56330;BME280;42236;48.058;10.632;2024-03-07T11:20:24;94834.22;;;4.13;100.00
56330;BME280;42236;48.058;10.632;2024-03-07T11:23:32;94833.31;;;4.18;100.00
56330;BME280;42236;48.058;10.632;2024-03-07T11:26:18;94823.66;;;4.36;100.00
56330;BME280;42236;48.058;10.632;2024-03-07T11:32:34;94821.28;;;4.48;100.00
56330;BME280;42236;48.058;10.632;2024-03-07T11:35:34;94816.34;;;4.55;100.00
56330;BME280;42236;48.058;10.632;2024-03-07T11:38:31;94815.06;;;4.53;100.00
56330;BME280;42236;48.058;10.632;2024-03-07T11:41:19;94819.59;;;4.38;100.00
56330;BME280;42236;48.058;10.632;2024-03-07T11:44:05;94814.63;;;4.32;100.00
56330;BME280;42236;48.058;10.632;2024-03-07T11:46:51;94813.44;;;4.10;100.00
56330;BME280;42236;48.058;10.632;2024-03-07T11:49:37;94808.00;;;4.15;100.00
56330;BME280;42236;48.058;10.632;2024-03-07T11:52:22;94809.78;;;4.06;100.00
56330;BME280;42236;48.058;10.632;2024-03-07T11:55:08;94802.66;;;4.01;100.00
56330;BME280;42236;48.058;10.632;2024-03-07T11:57:55;94800.97;;;3.92;100.00
56330;BME280;42236;48.058;10.632;2024-03-07T12:00:41;94796.41;;;3.92;100.00
56330;BME280;42236;48.058;10.632;2024-03-07T12:03:33;94786.34;;;3.89;100.00
56330;BME280;42236;48.058;10.632;2024-03-07T12:06:19;94790.75;;;3.94;100.00
56330;BME280;42236;48.058;10.632;2024-03-07T12:09:06;94791.84;;;3.93;100.00
56330;BME280;42236;48.058;10.632;2024-03-07T12:12:02;94793.28;;;4.04;100.00
56330;BME280;42236;48.058;10.632;2024-03-07T12:14:50;94796.03;;;3.99;100.00
56330;BME280;42236;48.058;10.632;2024-03-07T12:17:37;94796.44;;;4.06;100.00
56330;BME280;42236;48.058;10.632;2024-03-07T12:20:25;94793.66;;;4.11;100.00
56330;BME280;42236;48.058;10.632;2024-03-07T12:23:12;94792.66;;;4.07;100.00
56330;BME280;42236;48.058;10.632;2024-03-07T12:26:00;94792.84;;;4.11;100.00
56330;BME280;42236;48.058;10.632;2024-03-07T12:28:47;94783.56;;;4.08;100.00
56330;BME280;42236;48.058;10.632;2024-03-07T12:31:33;94788.91;;;4.08;100.00
56330;BME280;42236;48.058;10.632;2024-03-07T12:34:19;94777.75;;;4.20;100.00
56330;BME280;42236;48.058;10.632;2024-03-07T12:37:05;94779.94;;;4.32;100.00
56330;BME280;42236;48.058;10.632;2024-03-07T12:39:51;94778.31;;;4.44;100.00
56330;BME280;42236;48.058;10.632;2024-03-07T12:42:47;94769.34;;;4.26;100.00
56330;BME280;42236;48.058;10.632;2024-03-07T12:45:33;94767.78;;;4.25;100.00
56330;BME280;42236;48.058;10.632;2024-03-07T12:48:20;94759.66;;;4.31;100.00
56330;BME280;42236;48.058;10.632;2024-03-07T12:51:06;94761.44;;;4.35;100.00
56330;BME280;42236;48.058;10.632;2024-03-07T12:53:52;94767.25;;;4.51;100.00
56330;BME280;42236;48.058;10.632;2024-03-07T12:56:38;94763.34;;;4.71;100.00
56330;BME280;42236;48.058;10.632;2024-03-07T12:59:24;94763.94;;;4.82;100.00
56330;BME280;42236;48.058;10.632;2024-03-07T13:02:11;94768.41;;;4.73;100.00
56330;BME280;42236;48.058;10.632;2024-03-07T13:04:57;94774.97;;;4.66;100.00
56330;BME280;42236;48.058;10.632;2024-03-07T13:07:45;94763.69;;;4.69;100.00
56330;BME280;42236;48.058;10.632;2024-03-07T13:10:31;94758.88;;;4.80;100.00
56330;BME280;42236;48.058;10.632;2024-03-07T13:13:16;94759.22;;;4.79;100.00
56330;BME280;42236;48.058;10.632;2024-03-07T13:16:02;94753.88;;;4.79;100.00
56330;BME280;42236;48.058;10.632;2024-03-07T13:18:48;94755.31;;;4.85;100.00
56330;BME280;42236;48.058;10.632;2024-03-07T13:21:35;94755.00;;;5.00;100.00
56330;BME280;42236;48.058;10.632;2024-03-07T13:24:22;94750.38;;;5.14;100.00
56330;BME280;42236;48.058;10.632;2024-03-07T13:27:08;94748.81;;;5.13;100.00
56330;BME280;42236;48.058;10.632;2024-03-07T13:29:56;94743.69;;;5.26;100.00
56330;BME280;42236;48.058;10.632;2024-03-07T13:32:42;94740.19;;;5.39;100.00
56330;BME280;42236;48.058;10.632;2024-03-07T13:35:28;94740.91;;;5.53;100.00
56330;BME280;42236;48.058;10.632;2024-03-07T13:38:14;94738.59;;;5.61;100.00
56330;BME280;42236;48.058;10.632;2024-03-07T13:41:00;94740.66;;;5.64;100.00
56330;BME280;42236;48.058;10.632;2024-03-07T13:43:49;94738.13;;;5.67;98.60
56330;BME280;42236;48.058;10.632;2024-03-07T13:46:36;94733.13;;;5.66;97.50
56330;BME280;42236;48.058;10.632;2024-03-07T13:49:22;94725.56;;;5.68;97.49
56330;BME280;42236;48.058;10.632;2024-03-07T13:52:09;94727.50;;;5.76;97.77
56330;BME280;42236;48.058;10.632;2024-03-07T13:55:03;94725.66;;;5.85;97.81
56330;BME280;42236;48.058;10.632;2024-03-07T13:57:56;94723.22;;;5.97;95.91
56330;BME280;42236;48.058;10.632;2024-03-07T14:00:55;94718.81;;;6.02;91.38
56330;BME280;42236;48.058;10.632;2024-03-07T14:23:40;94699.38;;;5.87;88.02
56330;BME280;42236;48.058;10.632;2024-03-07T14:29:43;94705.31;;;5.84;94.39
56330;BME280;42236;48.058;10.632;2024-03-07T14:32:32;94700.19;;;5.96;92.50
56330;BME280;42236;48.058;10.632;2024-03-07T14:35:31;94703.41;;;6.07;93.53
56330;BME280;42236;48.058;10.632;2024-03-07T14:38:27;94691.91;;;6.15;88.49
56330;BME280;42236;48.058;10.632;2024-03-07T14:41:13;94689.44;;;6.19;90.31
56330;BME280;42236;48.058;10.632;2024-03-07T14:44:00;94702.34;;;6.26;92.91
56330;BME280;42236;48.058;10.632;2024-03-07T14:46:50;94692.09;;;6.19;88.43
56330;BME280;42236;48.058;10.632;2024-03-07T14:49:38;94697.13;;;6.12;88.71
56330;BME280;42236;48.058;10.632;2024-03-07T14:52:26;94688.41;;;6.06;88.78
56330;BME280;42236;48.058;10.632;2024-03-07T14:55:12;94694.59;;;6.07;88.51
56330;BME280;42236;48.058;10.632;2024-03-07T14:58:07;94686.03;;;5.96;84.69
56330;BME280;42236;48.058;10.632;2024-03-07T15:00:55;94696.44;;;5.97;89.17